Time;durP1;ratioP1;P1;durP2;ratioP2;P2;SDS_P1;SDS_P2;PMS_P1;PMS_P2;Temp;Humidity;BMP_temperature;BMP_pressure;BME280_temperature;BME280_humidity;BME280_pressure;Samples;Min_cycle;Max_cycle;Signal;HPM_P1;HPM_P2
2022/07/15 13:58:37;;;;;;;;;;;;;;;24.07;37.65;100944.41;6245399;23;624;-87
2022/07/15 14:01:02;;;;;;;;;;;;;;;22.13;42.30;100948.56;6221715;23;1956;-87
2022/07/15 14:03:28;;;;;;;;;;;;;;;21.79;43.91;100963.69;6221856;23;1220;-86
2022/07/15 14:05:53;;;;;;;;;;;;;;;21.56;42.45;100945.75;6221253;23;1290;-87
2022/07/15 14:08:18;;;;;;;;;;;;;;;21.47;43.62;100955.03;6194849;23;1290;-87
2022/07/15 14:10:43;;;;;;;;;;;;;;;21.04;41.76;100960.94;6216821;23;1035;-86
2022/07/15 14:13:09;;;;;;;;;;;;;;;21.23;43.34;100959.69;6184549;23;3677;-89
2022/07/15 14:15:34;;;;;;;;;;;;;;;21.38;42.58;100956.25;6156963;23;1133;-88
2022/07/15 14:17:59;;;;;;;;;;;;;;;21.35;44.52;100957.75;6155732;23;1278;-86
2022/07/15 14:20:24;;;;;;;;;;;;;;;21.20;44.80;100961.16;6157647;23;1006;-87
2022/07/15 14:22:49;;;;;;;;;;;;;;;21.24;44.54;100961.31;6157816;23;1900;-87
2022/07/15 14:25:15;;;;;;;;;;;;;;;21.27;44.05;100957.81;6158272;23;809;-86
2022/07/15 14:27:40;;;;;;;;;;;;;;;21.30;44.13;100963.53;6164192;23;1008;-87
2022/07/15 14:30:06;;;;;;;;;;;;;;;21.44;46.89;100954.88;6155745;23;1212;-87
2022/07/15 14:32:31;;;;;;;;;;;;;;;21.45;45.31;100950.94;6157334;23;1193;-87
2022/07/15 14:34:56;;;;;;;;;;;;;;;21.17;43.80;100952.66;6157557;23;1201;-88
2022/07/15 14:37:21;;;;;;;;;;;;;;;21.14;44.61;100946.63;6159066;23;1312;-86
2022/07/15 14:39:47;;;;;;;;;;;;;;;21.34;44.99;100945.00;6157364;23;869;-87
2022/07/15 14:42:12;;;;;;;;;;;;;;;21.40;45.00;100929.69;6158135;23;1988;-86
2022/07/15 14:44:37;;;;;;;;;;;;;;;21.18;41.41;100935.63;6156194;23;1224;-87
2022/07/15 14:47:02;;;;;;;;;;;;;;;21.41;43.99;100931.34;6158454;23;1129;-86
2022/07/15 14:49:28;;;;;;;;;;;;;;;21.61;43.51;100939.97;6160601;23;1222;-86
2022/07/15 14:51:53;;;;;;;;;;;;;;;21.54;41.93;100940.53;6158994;23;1391;-87
2022/07/15 14:54:18;;;;;;;;;;;;;;;21.50;41.93;100948.78;6157787;23;1238;-86
2022/07/15 14:56:43;;;;;;;;;;;;;;;21.51;43.36;100939.25;6158557;23;1184;-87
2022/07/15 14:59:09;;;;;;;;;;;;;;;21.43;44.52;100934.59;6157592;23;1012;-87
2022/07/15 15:01:35;;;;;;;;;;;;;;;21.21;43.96;100934.13;6159556;23;1909;-87
2022/07/15 15:04:00;;;;;;;;;;;;;;;21.02;44.47;100940.16;6160312;23;1194;-87
2022/07/15 15:06:25;;;;;;;;;;;;;;;20.86;44.68;100945.53;6160166;23;985;-87
2022/07/15 15:08:50;;;;;;;;;;;;;;;20.81;47.55;100947.69;6157627;23;1190;-86
2022/07/15 15:11:15;;;;;;;;;;;;;;;20.67;44.62;100945.97;6159964;23;1232;-86
2022/07/15 15:13:42;;;;;;;;;;;;;;;20.49;44.31;100947.25;6158020;23;1200;-86
2022/07/15 15:16:07;;;;;;;;;;;;;;;20.42;44.63;100937.78;6160374;23;1188;-86
2022/07/15 15:18:32;;;;;;;;;;;;;;;20.52;45.71;100946.56;6158786;23;997;-86
2022/07/15 15:20:57;;;;;;;;;;;;;;;20.38;47.42;100952.38;6159420;23;1902;-86
2022/07/15 15:23:22;;;;;;;;;;;;;;;20.39;46.60;100947.66;6159625;23;1251;-87
2022/07/15 15:28:31;;;;;;;;;;;;;;;20.45;46.54;100943.50;6162708;23;633;-86
2022/07/15 15:30:56;;;;;;;;;;;;;;;20.51;46.48;100946.91;6165961;23;977;-86
2022/07/15 15:33:22;;;;;;;;;;;;;;;20.61;45.88;100947.34;6160284;23;1276;-86
2022/07/15 15:35:47;;;;;;;;;;;;;;;20.56;45.53;100946.72;6159157;23;1294;-86
2022/07/15 15:38:12;;;;;;;;;;;;;;;20.44;45.45;100960.53;6163915;23;1047;-86
2022/07/15 15:40:37;;;;;;;;;;;;;;;20.31;44.77;100948.47;6161115;23;965;-86
2022/07/15 15:43:03;;;;;;;;;;;;;;;20.48;45.51;100939.25;6158143;23;1932;-86
2022/07/15 15:45:28;;;;;;;;;;;;;;;20.76;44.58;100941.16;6160037;23;1346;-87
2022/07/15 15:47:53;;;;;;;;;;;;;;;21.08;45.36;100947.16;6157939;23;646;-86
2022/07/15 15:50:18;;;;;;;;;;;;;;;21.20;45.35;100938.06;6159402;23;1203;-87
2022/07/15 15:52:44;;;;;;;;;;;;;;;21.28;44.93;100932.44;6156108;23;1049;-85
2022/07/15 15:55:09;;;;;;;;;;;;;;;21.30;45.30;100937.66;6155388;23;1400;-87
2022/07/15 15:57:35;;;;;;;;;;;;;;;21.31;45.52;100925.38;6155363;23;1355;-86
2022/07/15 16:00:00;;;;;;;;;;;;;;;21.36;44.96;100939.88;6159645;23;1280;-86
2022/07/15 16:02:25;;;;;;;;;;;;;;;21.51;44.19;100936.47;6159468;23;1974;-86
2022/07/15 16:04:50;;;;;;;;;;;;;;;21.43;44.81;100929.03;6155967;23;1267;-86
2022/07/15 16:07:15;;;;;;;;;;;;;;;21.57;45.70;100934.28;6153904;23;1166;-85
2022/07/15 16:09:40;;;;;;;;;;;;;;;21.77;45.07;100927.84;6155222;23;1211;-86
2022/07/15 16:12:06;;;;;;;;;;;;;;;21.95;44.47;100925.63;6155250;23;1055;-85
2022/07/15 16:14:31;;;;;;;;;;;;;;;22.07;44.46;100931.25;6154613;23;1243;-87
2022/07/15 16:16:56;;;;;;;;;;;;;;;22.44;44.23;100932.09;6154489;23;1350;-86
2022/07/15 16:19:21;;;;;;;;;;;;;;;22.55;44.78;100929.59;6154484;23;1210;-86
2022/07/15 16:24:30;;;;;;;;;;;;;;;21.76;45.02;100926.22;6155938;23;1290;-86
2022/07/15 16:26:55;;;;;;;;;;;;;;;21.70;45.21;100918.38;6154277;23;1140;-86
2022/07/15 16:29:20;;;;;;;;;;;;;;;21.64;46.73;100922.56;6154246;23;1309;-85
2022/07/15 16:31:46;;;;;;;;;;;;;;;21.66;47.07;100920.25;6153557;23;1037;-85
2022/07/15 16:34:12;;;;;;;;;;;;;;;21.58;45.66;100923.94;6155613;23;1211;-87
2022/07/15 16:36:37;;;;;;;;;;;;;;;21.40;46.45;100912.19;6156038;23;1020;-87
2022/07/15 16:39:02;;;;;;;;;;;;;;;21.23;46.09;100912.34;6155592;23;802;-85
2022/07/15 16:41:27;;;;;;;;;;;;;;;21.26;47.67;100912.47;6155708;23;1916;-87
2022/07/15 16:43:52;;;;;;;;;;;;;;;21.35;46.50;100904.03;6153725;23;1164;-87
2022/07/15 16:46:18;;;;;;;;;;;;;;;21.29;47.59;100906.22;6155301;23;1012;-87
2022/07/15 16:48:43;;;;;;;;;;;;;;;21.18;47.63;100907.00;6152289;23;1297;-87
2022/07/15 16:51:08;;;;;;;;;;;;;;;21.03;46.41;100903.63;6154232;23;1077;-87
2022/07/15 16:53:33;;;;;;;;;;;;;;;21.04;46.69;100904.44;6155706;23;1358;-87
2022/07/15 16:55:58;;;;;;;;;;;;;;;20.96;47.60;100908.13;6154716;23;1191;-86
2022/07/15 16:58:23;;;;;;;;;;;;;;;21.05;47.62;100903.31;6155699;23;811;-88
2022/07/15 17:00:49;;;;;;;;;;;;;;;21.17;47.47;100908.97;6154079;23;910;-88
2022/07/15 17:03:14;;;;;;;;;;;;;;;21.28;46.27;100899.00;6153285;23;1920;-86
2022/07/15 17:05:39;;;;;;;;;;;;;;;21.29;46.86;100900.66;6155696;23;690;-85
2022/07/15 17:08:04;;;;;;;;;;;;;;;21.24;46.64;100903.66;6154878;23;992;-85
2022/07/15 17:10:30;;;;;;;;;;;;;;;21.17;46.56;100897.84;6154303;23;1399;-86
2022/07/15 17:12:55;;;;;;;;;;;;;;;21.10;47.05;100889.16;6154276;23;1302;-86
2022/07/15 17:15:21;;;;;;;;;;;;;;;20.92;47.02;100882.16;6153452;23;1147;-85
2022/07/15 17:17:46;;;;;;;;;;;;;;;20.95;47.67;100881.44;6154004;23;1016;-86
2022/07/15 17:20:13;;;;;;;;;;;;;;;20.88;49.19;100887.56;6156260;23;967;-85
2022/07/15 17:22:38;;;;;;;;;;;;;;;20.85;49.17;100879.88;6153680;23;1930;-85
2022/07/15 17:25:03;;;;;;;;;;;;;;;20.76;50.01;100888.31;6149160;23;1220;-86
2022/07/15 17:27:31;;;;;;;;;;;;;;;20.75;51.39;100888.69;6147038;23;1365;-85
2022/07/15 17:29:56;;;;;;;;;;;;;;;20.60;53.03;100895.63;6148260;23;823;-85
2022/07/15 17:32:21;;;;;;;;;;;;;;;20.63;48.80;100883.84;6146254;23;1308;-85
2022/07/15 17:34:46;;;;;;;;;;;;;;;20.69;50.04;100888.03;6150067;23;1293;-85
2022/07/15 17:37:11;;;;;;;;;;;;;;;20.77;48.15;100880.78;6145836;23;1244;-85
2022/07/15 17:39:37;;;;;;;;;;;;;;;20.84;47.76;100883.03;6148525;23;1254;-86
2022/07/15 17:42:02;;;;;;;;;;;;;;;20.83;50.69;100882.22;6146953;23;1881;-86
2022/07/15 17:44:27;;;;;;;;;;;;;;;21.84;48.43;100879.88;6147579;23;1288;-86
2022/07/15 17:46:52;;;;;;;;;;;;;;;22.58;45.74;100870.31;6147434;23;1014;-85
2022/07/15 17:49:17;;;;;;;;;;;;;;;23.15;42.79;100869.22;6147307;23;1192;-86
2022/07/15 17:51:43;;;;;;;;;;;;;;;23.19;41.84;100870.13;6147317;23;1153;-86
2022/07/15 17:54:08;;;;;;;;;;;;;;;22.77;43.80;100867.75;6148078;23;1218;-86
2022/07/15 17:56:33;;;;;;;;;;;;;;;22.69;43.48;100874.25;6148752;23;806;-85
2022/07/15 17:58:59;;;;;;;;;;;;;;;22.47;45.12;100867.19;6150340;23;1015;-85
2022/07/15 18:01:24;;;;;;;;;;;;;;;22.47;44.90;100866.38;6151382;23;1934;-85
2022/07/15 18:03:49;;;;;;;;;;;;;;;22.18;44.82;100862.72;6152871;23;1225;-87
2022/07/15 18:06:15;;;;;;;;;;;;;;;21.93;45.11;100871.41;6154824;23;996;-86
2022/07/15 18:08:40;;;;;;;;;;;;;;;21.55;44.38;100866.13;6157327;23;1412;-86
2022/07/15 18:11:05;;;;;;;;;;;;;;;21.44;47.28;100872.13;6156200;23;992;-85
2022/07/15 18:13:31;;;;;;;;;;;;;;;21.22;45.79;100872.56;6154713;23;1345;-85
2022/07/15 18:15:57;;;;;;;;;;;;;;;21.05;46.47;100872.69;6154304;23;822;-86
2022/07/15 18:18:22;;;;;;;;;;;;;;;21.01;46.74;100868.97;6155956;23;825;-84
2022/07/15 18:20:47;;;;;;;;;;;;;;;21.02;47.66;100870.56;6156020;23;1252;-85
2022/07/15 18:23:12;;;;;;;;;;;;;;;21.03;49.73;100870.25;6159748;23;1877;-84
2022/07/15 18:25:37;;;;;;;;;;;;;;;20.91;50.73;100872.16;6156378;23;720;-84
2022/07/15 18:28:02;;;;;;;;;;;;;;;20.76;47.35;100876.38;6156598;23;1210;-84
2022/07/15 18:30:28;;;;;;;;;;;;;;;20.75;50.05;100877.53;6161236;23;1119;-85
2022/07/15 18:32:53;;;;;;;;;;;;;;;20.77;47.45;100875.22;6158163;23;1300;-85
2022/07/15 18:35:18;;;;;;;;;;;;;;;20.65;45.45;100873.19;6158135;23;1152;-85
2022/07/15 18:37:44;;;;;;;;;;;;;;;20.63;45.80;100869.94;6155682;23;972;-84
2022/07/15 18:40:09;;;;;;;;;;;;;;;20.69;46.12;100871.34;6150918;23;1177;-85
2022/07/15 18:42:34;;;;;;;;;;;;;;;20.61;45.73;100872.22;6152991;23;1931;-85
2022/07/15 18:45:00;;;;;;;;;;;;;;;20.68;48.60;100869.72;6154541;23;1285;-85
2022/07/15 18:47:25;;;;;;;;;;;;;;;20.58;48.09;100867.38;6154579;23;1299;-85
2022/07/15 18:49:50;;;;;;;;;;;;;;;20.56;51.17;100877.19;6156093;23;1021;-85
2022/07/15 18:52:15;;;;;;;;;;;;;;;20.42;51.19;100876.63;6154534;23;890;-85
2022/07/15 18:54:40;;;;;;;;;;;;;;;20.37;51.77;100872.91;6153673;23;1267;-85
2022/07/15 18:57:06;;;;;;;;;;;;;;;20.08;53.53;100869.28;6154098;23;1101;-86
2022/07/15 18:59:31;;;;;;;;;;;;;;;19.98;51.30;100865.75;6154839;23;999;-85
2022/07/15 19:01:56;;;;;;;;;;;;;;;19.75;52.68;100861.59;6155657;23;1928;-86
2022/07/15 19:04:22;;;;;;;;;;;;;;;19.71;54.54;100873.72;6155523;23;1349;-85
2022/07/15 19:06:48;;;;;;;;;;;;;;;19.71;51.79;100865.38;6155111;23;1167;-85
2022/07/15 19:09:13;;;;;;;;;;;;;;;19.70;53.65;100866.53;6154066;23;1199;-85
2022/07/15 19:11:38;;;;;;;;;;;;;;;19.38;55.31;100868.72;6154952;23;1297;-85
2022/07/15 19:14:04;;;;;;;;;;;;;;;19.21;57.99;100866.81;6156224;23;1198;-85
2022/07/15 19:16:29;;;;;;;;;;;;;;;19.30;55.21;100871.53;6154219;23;1299;-86
2022/07/15 19:18:54;;;;;;;;;;;;;;;19.11;55.40;100863.56;6152899;23;1184;-86
2022/07/15 19:21:19;;;;;;;;;;;;;;;19.16;55.88;100861.41;6153900;23;1885;-85
2022/07/15 19:23:44;;;;;;;;;;;;;;;19.13;55.32;100864.06;6154245;23;1282;-85
2022/07/15 19:26:09;;;;;;;;;;;;;;;18.90;57.24;100861.44;6154639;23;1286;-86
2022/07/15 19:28:35;;;;;;;;;;;;;;;18.96;58.36;100864.88;6155733;23;823;-85
2022/07/15 19:31:00;;;;;;;;;;;;;;;18.80;57.15;100872.88;6155779;23;1144;-85
2022/07/15 19:33:29;;;;;;;;;;;;;;;18.80;58.25;100877.59;6154311;23;1264;-85
2022/07/15 19:35:54;;;;;;;;;;;;;;;18.67;58.09;100876.63;6150344;23;1201;-85
2022/07/15 19:38:19;;;;;;;;;;;;;;;18.68;56.91;100877.44;6153201;23;1016;-84
2022/07/15 19:40:45;;;;;;;;;;;;;;;18.31;59.80;100882.41;6153267;23;1185;-85
2022/07/15 19:43:10;;;;;;;;;;;;;;;18.34;57.84;100887.31;6153145;23;1922;-85
2022/07/15 19:45:35;;;;;;;;;;;;;;;18.41;57.53;100881.28;6155148;23;941;-86
2022/07/15 19:48:00;;;;;;;;;;;;;;;18.24;57.53;100892.34;6152437;23;1151;-87
2022/07/15 19:50:26;;;;;;;;;;;;;;;18.04;60.65;100889.03;6153362;23;1168;-85
2022/07/15 19:52:51;;;;;;;;;;;;;;;18.03;61.51;100894.91;6154550;23;1328;-85
2022/07/15 19:55:16;;;;;;;;;;;;;;;18.14;60.48;100893.44;6155216;23;1337;-85
2022/07/15 19:57:41;;;;;;;;;;;;;;;18.02;59.97;100887.72;6154338;23;846;-87
2022/07/15 20:00:17;;;;;;;;;;;;;;;18.00;59.35;100892.78;6153684;23;1069;-85
2022/07/15 20:02:47;;;;;;;;;;;;;;;17.81;60.18;100872.81;6154306;23;1889;-85
2022/07/15 20:05:13;;;;;;;;;;;;;;;17.90;58.52;100895.81;6152160;23;1145;-85
2022/07/15 20:07:38;;;;;;;;;;;;;;;17.64;60.51;100893.75;6153207;23;1200;-84
2022/07/15 20:10:04;;;;;;;;;;;;;;;17.42;62.78;100892.94;6154234;23;1301;-85
2022/07/15 20:12:29;;;;;;;;;;;;;;;17.49;61.95;100898.84;6156038;23;1180;-84
2022/07/15 20:14:55;;;;;;;;;;;;;;;17.40;61.51;100891.31;6155725;23;2099;-88
2022/07/15 20:17:20;;;;;;;;;;;;;;;17.33;61.16;100895.66;6153253;23;1234;-88
2022/07/15 20:19:45;;;;;;;;;;;;;;;17.55;60.40;100890.09;6153825;23;1378;-87
2022/07/15 20:22:10;;;;;;;;;;;;;;;17.60;60.07;100892.75;6152895;23;1905;-87
2022/07/15 20:24:37;;;;;;;;;;;;;;;17.44;61.33;100899.00;6153444;23;1236;-87
2022/07/15 20:27:02;;;;;;;;;;;;;;;17.14;61.38;100895.88;6154560;23;1196;-87
2022/07/15 20:29:28;;;;;;;;;;;;;;;17.22;60.28;100897.88;6154886;23;1314;-85
2022/07/15 20:31:53;;;;;;;;;;;;;;;17.08;61.77;100893.53;6155018;23;1323;-85
2022/07/15 20:34:18;;;;;;;;;;;;;;;17.22;62.33;100900.63;6155970;23;1192;-85
2022/07/15 20:36:43;;;;;;;;;;;;;;;16.95;62.73;100903.53;6156308;23;858;-85
2022/07/15 20:39:09;;;;;;;;;;;;;;;17.07;62.72;100901.03;6154523;23;1243;-85
2022/07/15 20:41:34;;;;;;;;;;;;;;;17.06;63.41;100896.63;6154553;23;1892;-85
2022/07/15 20:43:59;;;;;;;;;;;;;;;17.14;63.04;100893.09;6154717;23;1260;-85
2022/07/15 20:46:25;;;;;;;;;;;;;;;17.10;63.07;100888.53;6154890;23;889;-84
2022/07/15 20:48:50;;;;;;;;;;;;;;;17.03;63.11;100897.22;6153063;23;1169;-84
2022/07/15 20:51:15;;;;;;;;;;;;;;;17.04;62.96;100893.34;6153464;23;680;-85
2022/07/15 20:53:40;;;;;;;;;;;;;;;16.81;64.22;100902.75;6152640;23;1195;-85
2022/07/15 20:56:05;;;;;;;;;;;;;;;16.76;64.26;100897.38;6152307;23;1232;-85
2022/07/15 20:58:30;;;;;;;;;;;;;;;16.98;63.47;100892.66;6153110;23;1176;-86
2022/07/15 21:00:56;;;;;;;;;;;;;;;16.95;64.16;100890.50;6154995;23;831;-88
2022/07/15 21:03:21;;;;;;;;;;;;;;;16.97;63.49;100891.03;6154351;23;1934;-84
2022/07/15 21:05:46;;;;;;;;;;;;;;;17.08;63.02;100885.25;6153501;23;1125;-84
2022/07/15 21:08:11;;;;;;;;;;;;;;;17.11;61.84;100898.44;6154430;23;1048;-84
2022/07/15 21:10:37;;;;;;;;;;;;;;;17.10;61.86;100892.06;6155853;23;1001;-84
2022/07/15 21:13:02;;;;;;;;;;;;;;;17.06;62.54;100888.31;6155957;23;817;-85
2022/07/15 21:15:28;;;;;;;;;;;;;;;16.82;62.80;100888.63;6154319;23;1200;-85
2022/07/15 21:17:53;;;;;;;;;;;;;;;16.65;63.74;100888.47;6154247;23;807;-85
2022/07/15 21:20:18;;;;;;;;;;;;;;;16.83;64.29;100898.56;6155499;23;1043;-84
2022/07/15 21:22:43;;;;;;;;;;;;;;;16.67;64.02;100886.22;6154325;23;1928;-85
2022/07/15 21:27:54;;;;;;;;;;;;;;;16.57;64.32;100880.91;6155292;23;605;-85
2022/07/15 21:30:19;;;;;;;;;;;;;;;16.70;63.66;100879.25;6154237;23;1196;-84
2022/07/15 21:32:44;;;;;;;;;;;;;;;16.62;63.44;100876.09;6153853;23;1169;-85
2022/07/15 21:35:09;;;;;;;;;;;;;;;16.28;64.98;100876.53;6152817;23;1344;-85
2022/07/15 21:37:35;;;;;;;;;;;;;;;16.36;65.00;100871.41;6155585;23;766;-85
2022/07/15 21:40:00;;;;;;;;;;;;;;;16.31;64.51;100866.84;6154067;23;1001;-85
2022/07/15 21:42:26;;;;;;;;;;;;;;;16.27;65.52;100863.88;6153196;23;1881;-84
2022/07/15 21:44:51;;;;;;;;;;;;;;;16.18;66.10;100867.66;6153350;23;1352;-84
2022/07/15 21:47:16;;;;;;;;;;;;;;;16.15;64.93;100871.06;6153537;23;1157;-85
2022/07/15 21:49:42;;;;;;;;;;;;;;;16.28;63.93;100862.75;6153537;23;1041;-85
2022/07/15 21:52:07;;;;;;;;;;;;;;;16.24;64.23;100872.78;6153102;23;1227;-85
2022/07/15 21:54:33;;;;;;;;;;;;;;;15.96;65.57;100879.44;6154808;23;1203;-85
2022/07/15 21:56:58;;;;;;;;;;;;;;;15.91;65.22;100875.97;6153718;23;1343;-85
2022/07/15 21:59:23;;;;;;;;;;;;;;;15.84;65.64;100870.84;6153703;23;1169;-85
2022/07/15 22:01:48;;;;;;;;;;;;;;;15.84;65.63;100873.59;6155854;23;1892;-85
2022/07/15 22:04:14;;;;;;;;;;;;;;;15.84;65.24;100871.66;6155604;23;1315;-86
2022/07/15 22:06:39;;;;;;;;;;;;;;;15.87;64.99;100873.81;6156242;23;1006;-85
2022/07/15 22:09:04;;;;;;;;;;;;;;;15.83;64.69;100875.53;6155839;23;999;-85
2022/07/15 22:11:30;;;;;;;;;;;;;;;15.83;64.83;100874.72;6157691;23;826;-84
2022/07/15 22:13:56;;;;;;;;;;;;;;;15.64;66.20;100868.50;6155565;23;1208;-85
2022/07/15 22:16:22;;;;;;;;;;;;;;;15.68;65.90;100869.50;6156153;23;1255;-85
2022/07/15 22:18:47;;;;;;;;;;;;;;;15.79;65.24;100869.03;6156644;23;1035;-85
2022/07/15 22:21:12;;;;;;;;;;;;;;;15.72;65.59;100871.38;6156323;23;1901;-85
2022/07/15 22:23:38;;;;;;;;;;;;;;;15.76;65.77;100874.31;6155139;23;1372;-85
2022/07/15 22:26:04;;;;;;;;;;;;;;;15.50;65.51;100874.78;6155240;23;1196;-85
2022/07/15 22:28:29;;;;;;;;;;;;;;;15.32;66.00;100874.84;6155394;23;1220;-85
2022/07/15 22:30:54;;;;;;;;;;;;;;;15.50;65.54;100880.28;6158268;23;842;-85
2022/07/15 22:33:19;;;;;;;;;;;;;;;15.41;65.15;100876.59;6155920;23;870;-85
2022/07/15 22:35:44;;;;;;;;;;;;;;;15.40;66.13;100872.19;6155581;23;1263;-85
2022/07/15 22:38:10;;;;;;;;;;;;;;;15.37;66.32;100867.31;6155642;23;858;-85
2022/07/15 22:40:35;;;;;;;;;;;;;;;15.43;65.54;100868.03;6155123;23;1235;-85
2022/07/15 22:43:00;;;;;;;;;;;;;;;15.18;66.19;100865.72;6154597;23;1928;-85
2022/07/15 22:45:26;;;;;;;;;;;;;;;15.33;65.84;100865.44;6155464;23;1298;-85
2022/07/15 22:47:51;;;;;;;;;;;;;;;15.08;66.21;100874.97;6155192;23;1204;-85
2022/07/15 22:50:16;;;;;;;;;;;;;;;14.96;67.23;100866.38;6155381;23;974;-85
2022/07/15 22:52:41;;;;;;;;;;;;;;;14.85;67.77;100860.19;6154470;23;890;-84
2022/07/15 22:55:07;;;;;;;;;;;;;;;14.89;67.75;100863.97;6156802;23;1411;-85
2022/07/15 22:57:32;;;;;;;;;;;;;;;14.83;68.25;100862.44;6154833;23;1389;-85
2022/07/15 22:59:57;;;;;;;;;;;;;;;14.76;68.15;100860.06;6155728;23;1146;-85
2022/07/15 23:02:23;;;;;;;;;;;;;;;14.81;68.36;100863.84;6157233;23;1876;-85
2022/07/15 23:04:48;;;;;;;;;;;;;;;15.08;67.39;100859.25;6164454;23;1298;-85
2022/07/15 23:07:13;;;;;;;;;;;;;;;14.99;66.77;100861.06;6176462;23;689;-85
2022/07/15 23:09:39;;;;;;;;;;;;;;;15.02;66.47;100871.50;6175241;23;1193;-85
2022/07/15 23:12:04;;;;;;;;;;;;;;;14.88;67.63;100864.31;6178748;23;1078;-85
2022/07/15 23:14:29;;;;;;;;;;;;;;;14.75;67.31;100866.69;6171163;23;1196;-85
2022/07/15 23:16:54;;;;;;;;;;;;;;;14.71;67.70;100864.84;6160659;23;1498;-84
2022/07/15 23:19:19;;;;;;;;;;;;;;;14.70;68.00;100855.75;6156883;23;902;-85
2022/07/15 23:21:45;;;;;;;;;;;;;;;14.69;68.66;100859.63;6156551;23;1941;-85
2022/07/15 23:24:10;;;;;;;;;;;;;;;14.61;68.86;100860.31;6155340;23;1327;-85
2022/07/15 23:26:35;;;;;;;;;;;;;;;14.66;68.45;100860.22;6155808;23;1316;-85
2022/07/15 23:29:01;;;;;;;;;;;;;;;14.59;68.34;100859.78;6155879;23;953;-85
2022/07/15 23:31:26;;;;;;;;;;;;;;;14.55;68.36;100858.72;6155377;23;1232;-86
2022/07/15 23:33:51;;;;;;;;;;;;;;;14.62;67.67;100855.63;6154219;23;1196;-85
2022/07/15 23:36:16;;;;;;;;;;;;;;;14.66;68.41;100854.69;6156100;23;807;-85
2022/07/15 23:38:41;;;;;;;;;;;;;;;14.46;68.58;100859.72;6155707;23;1160;-85
2022/07/15 23:41:07;;;;;;;;;;;;;;;14.64;68.35;100854.19;6156199;23;1897;-85
2022/07/15 23:43:32;;;;;;;;;;;;;;;14.61;67.18;100854.78;6159175;23;1296;-85
2022/07/15 23:45:57;;;;;;;;;;;;;;;14.36;68.89;100857.88;6159151;23;1016;-85
2022/07/15 23:48:22;;;;;;;;;;;;;;;14.15;69.40;100849.06;6158601;23;911;-85
2022/07/15 23:50:47;;;;;;;;;;;;;;;14.33;69.11;100859.28;6156359;23;961;-85
2022/07/15 23:53:13;;;;;;;;;;;;;;;14.42;67.85;100853.16;6157001;23;1327;-85
2022/07/15 23:55:39;;;;;;;;;;;;;;;14.39;68.41;100858.13;6156137;23;1525;-84
2022/07/15 23:58:04;;;;;;;;;;;;;;;14.28;68.56;100866.81;6155262;23;1341;-85
